sensor_id;sensor_type;location;lat;lon;timestamp;P1;durP1;ratioP1;P2;durP2;ratioP2
56401;SDS011;42299;35.160;26.100;2023-04-07T00:00:31;11.55;;;3.50;;
56401;SDS011;42299;35.160;26.100;2023-04-07T00:01:52;13.95;;;3.50;;
56401;SDS011;42299;35.160;26.100;2023-04-07T00:03:15;12.68;;;2.90;;
56401;SDS011;42299;35.160;26.100;2023-04-07T00:04:37;8.18;;;3.05;;
56401;SDS011;42299;35.160;26.100;2023-04-07T00:05:58;9.35;;;3.30;;
56401;SDS011;42299;35.160;26.100;2023-04-07T00:07:21;9.55;;;2.72;;
56401;SDS011;42299;35.160;26.100;2023-04-07T00:08:43;13.07;;;2.50;;
56401;SDS011;42299;35.160;26.100;2023-04-07T00:10:06;7.07;;;2.40;;
56401;SDS011;42299;35.160;26.100;2023-04-07T00:11:28;10.27;;;3.75;;
56401;SDS011;42299;35.160;26.100;2023-04-07T00:12:50;14.73;;;7.47;;
56401;SDS011;42299;35.160;26.100;2023-04-07T00:14:12;14.20;;;7.05;;
56401;SDS011;42299;35.160;26.100;2023-04-07T00:15:34;13.30;;;4.85;;
56401;SDS011;42299;35.160;26.100;2023-04-07T00:16:56;9.32;;;3.92;;
56401;SDS011;42299;35.160;26.100;2023-04-07T00:18:18;10.27;;;3.13;;
56401;SDS011;42299;35.160;26.100;2023-04-07T00:19:41;8.93;;;2.78;;
56401;SDS011;42299;35.160;26.100;2023-04-07T00:22:25;8.73;;;2.30;;
56401;SDS011;42299;35.160;26.100;2023-04-07T00:23:48;9.18;;;2.25;;
56401;SDS011;42299;35.160;26.100;2023-04-07T00:25:11;9.55;;;2.15;;
56401;SDS011;42299;35.160;26.100;2023-04-07T00:26:33;12.90;;;2.10;;
56401;SDS011;42299;35.160;26.100;2023-04-07T00:27:55;12.05;;;3.25;;
56401;SDS011;42299;35.160;26.100;2023-04-07T00:29:16;8.30;;;3.00;;
56401;SDS011;42299;35.160;26.100;2023-04-07T00:30:39;13.70;;;3.72;;
56401;SDS011;42299;35.160;26.100;2023-04-07T00:32:00;14.07;;;4.20;;
56401;SDS011;42299;35.160;26.100;2023-04-07T00:33:23;10.65;;;3.63;;
56401;SDS011;42299;35.160;26.100;2023-04-07T00:34:45;14.55;;;3.75;;
56401;SDS011;42299;35.160;26.100;2023-04-07T00:36:06;10.48;;;3.88;;
56401;SDS011;42299;35.160;26.100;2023-04-07T00:37:29;15.18;;;9.35;;
56401;SDS011;42299;35.160;26.100;2023-04-07T00:38:52;10.15;;;3.53;;
56401;SDS011;42299;35.160;26.100;2023-04-07T00:40:14;12.13;;;4.50;;
56401;SDS011;42299;35.160;26.100;2023-04-07T00:41:37;10.15;;;3.97;;
56401;SDS011;42299;35.160;26.100;2023-04-07T00:42:59;9.65;;;3.92;;
56401;SDS011;42299;35.160;26.100;2023-04-07T00:44:21;13.15;;;2.65;;
56401;SDS011;42299;35.160;26.100;2023-04-07T00:45:43;10.60;;;2.42;;
56401;SDS011;42299;35.160;26.100;2023-04-07T00:47:05;7.40;;;2.55;;
56401;SDS011;42299;35.160;26.100;2023-04-07T00:48:27;5.18;;;2.28;;
56401;SDS011;42299;35.160;26.100;2023-04-07T00:49:50;12.40;;;2.92;;
56401;SDS011;42299;35.160;26.100;2023-04-07T00:51:12;10.38;;;2.58;;
56401;SDS011;42299;35.160;26.100;2023-04-07T00:52:36;7.72;;;2.60;;
56401;SDS011;42299;35.160;26.100;2023-04-07T00:54:00;8.45;;;2.55;;
56401;SDS011;42299;35.160;26.100;2023-04-07T00:55:23;7.95;;;2.30;;
56401;SDS011;42299;35.160;26.100;2023-04-07T00:56:45;11.93;;;2.63;;
56401;SDS011;42299;35.160;26.100;2023-04-07T00:58:07;6.13;;;2.20;;
56401;SDS011;42299;35.160;26.100;2023-04-07T00:59:31;9.52;;;2.60;;
56401;SDS011;42299;35.160;26.100;2023-04-07T01:00:55;10.55;;;3.13;;
56401;SDS011;42299;35.160;26.100;2023-04-07T01:02:25;8.73;;;2.65;;
56401;SDS011;42299;35.160;26.100;2023-04-07T01:03:56;9.85;;;2.10;;
56401;SDS011;42299;35.160;26.100;2023-04-07T01:05:22;8.90;;;2.33;;
56401;SDS011;42299;35.160;26.100;2023-04-07T01:06:51;10.85;;;2.20;;
56401;SDS011;42299;35.160;26.100;2023-04-07T01:08:26;11.20;;;2.63;;
56401;SDS011;42299;35.160;26.100;2023-04-07T01:10:00;12.73;;;5.20;;
56401;SDS011;42299;35.160;26.100;2023-04-07T01:11:31;12.60;;;5.55;;
56401;SDS011;42299;35.160;26.100;2023-04-07T01:13:00;15.65;;;11.45;;
56401;SDS011;42299;35.160;26.100;2023-04-07T01:14:25;15.32;;;10.05;;
56401;SDS011;42299;35.160;26.100;2023-04-07T01:16:10;20.00;;;10.43;;
56401;SDS011;42299;35.160;26.100;2023-04-07T01:17:42;15.38;;;10.93;;
56401;SDS011;42299;35.160;26.100;2023-04-07T01:19:12;15.88;;;9.57;;
56401;SDS011;42299;35.160;26.100;2023-04-07T01:20:41;14.98;;;9.88;;
56401;SDS011;42299;35.160;26.100;2023-04-07T01:22:08;16.25;;;9.60;;
56401;SDS011;42299;35.160;26.100;2023-04-07T01:23:48;15.35;;;8.82;;
56401;SDS011;42299;35.160;26.100;2023-04-07T01:25:25;18.02;;;9.57;;
56401;SDS011;42299;35.160;26.100;2023-04-07T01:26:56;20.70;;;18.63;;
56401;SDS011;42299;35.160;26.100;2023-04-07T01:28:39;13.65;;;8.77;;
56401;SDS011;42299;35.160;26.100;2023-04-07T01:30:12;10.30;;;5.28;;
56401;SDS011;42299;35.160;26.100;2023-04-07T01:31:38;11.50;;;4.80;;
56401;SDS011;42299;35.160;26.100;2023-04-07T01:33:02;11.05;;;6.82;;
56401;SDS011;42299;35.160;26.100;2023-04-07T01:34:26;10.40;;;6.03;;
56401;SDS011;42299;35.160;26.100;2023-04-07T01:35:52;10.38;;;4.70;;
56401;SDS011;42299;35.160;26.100;2023-04-07T01:37:15;10.80;;;4.00;;
56401;SDS011;42299;35.160;26.100;2023-04-07T01:38:38;7.70;;;2.67;;
56401;SDS011;42299;35.160;26.100;2023-04-07T01:40:00;9.02;;;2.88;;
56401;SDS011;42299;35.160;26.100;2023-04-07T01:41:24;9.00;;;3.17;;
56401;SDS011;42299;35.160;26.100;2023-04-07T01:42:46;10.55;;;3.42;;
56401;SDS011;42299;35.160;26.100;2023-04-07T01:44:10;6.90;;;3.30;;
56401;SDS011;42299;35.160;26.100;2023-04-07T01:45:36;8.60;;;3.47;;
56401;SDS011;42299;35.160;26.100;2023-04-07T01:46:59;8.70;;;3.58;;
56401;SDS011;42299;35.160;26.100;2023-04-07T01:48:22;9.95;;;2.80;;
56401;SDS011;42299;35.160;26.100;2023-04-07T01:49:45;9.63;;;2.72;;
56401;SDS011;42299;35.160;26.100;2023-04-07T01:51:09;8.50;;;3.28;;
56401;SDS011;42299;35.160;26.100;2023-04-07T01:52:36;8.25;;;3.03;;
56401;SDS011;42299;35.160;26.100;2023-04-07T01:54:00;10.48;;;2.80;;
56401;SDS011;42299;35.160;26.100;2023-04-07T01:55:22;13.40;;;6.35;;
56401;SDS011;42299;35.160;26.100;2023-04-07T01:56:55;9.27;;;4.70;;
56401;SDS011;42299;35.160;26.100;2023-04-07T01:58:19;8.60;;;3.63;;
56401;SDS011;42299;35.160;26.100;2023-04-07T01:59:42;13.57;;;5.30;;
56401;SDS011;42299;35.160;26.100;2023-04-07T02:01:06;9.07;;;5.35;;
56401;SDS011;42299;35.160;26.100;2023-04-07T02:02:29;10.80;;;4.28;;
56401;SDS011;42299;35.160;26.100;2023-04-07T02:03:52;8.32;;;4.38;;
56401;SDS011;42299;35.160;26.100;2023-04-07T02:05:18;10.07;;;4.70;;
56401;SDS011;42299;35.160;26.100;2023-04-07T02:06:42;12.70;;;5.38;;
56401;SDS011;42299;35.160;26.100;2023-04-07T02:08:11;11.82;;;5.38;;
56401;SDS011;42299;35.160;26.100;2023-04-07T02:09:37;13.48;;;5.65;;
56401;SDS011;42299;35.160;26.100;2023-04-07T02:11:02;11.00;;;5.20;;
56401;SDS011;42299;35.160;26.100;2023-04-07T02:12:29;9.57;;;4.85;;
56401;SDS011;42299;35.160;26.100;2023-04-07T02:14:04;10.52;;;5.50;;
56401;SDS011;42299;35.160;26.100;2023-04-07T02:15:42;8.75;;;5.30;;
56401;SDS011;42299;35.160;26.100;2023-04-07T02:17:08;12.00;;;4.13;;
56401;SDS011;42299;35.160;26.100;2023-04-07T02:18:32;9.55;;;3.20;;
56401;SDS011;42299;35.160;26.100;2023-04-07T02:19:54;11.52;;;3.67;;
56401;SDS011;42299;35.160;26.100;2023-04-07T02:21:19;8.02;;;2.92;;
56401;SDS011;42299;35.160;26.100;2023-04-07T02:22:42;9.95;;;3.17;;
56401;SDS011;42299;35.160;26.100;2023-04-07T02:24:05;5.80;;;3.00;;
56401;SDS011;42299;35.160;26.100;2023-04-07T02:25:28;6.97;;;3.20;;
56401;SDS011;42299;35.160;26.100;2023-04-07T02:26:51;11.43;;;5.53;;
56401;SDS011;42299;35.160;26.100;2023-04-07T02:28:14;12.43;;;5.70;;
56401;SDS011;42299;35.160;26.100;2023-04-07T02:29:39;18.52;;;10.85;;
56401;SDS011;42299;35.160;26.100;2023-04-07T02:31:01;20.63;;;15.10;;
56401;SDS011;42299;35.160;26.100;2023-04-07T02:32:24;18.48;;;16.33;;
56401;SDS011;42299;35.160;26.100;2023-04-07T02:33:47;25.33;;;22.85;;
56401;SDS011;42299;35.160;26.100;2023-04-07T02:35:09;18.60;;;15.50;;
56401;SDS011;42299;35.160;26.100;2023-04-07T02:36:31;14.70;;;8.27;;
56401;SDS011;42299;35.160;26.100;2023-04-07T02:37:52;14.18;;;10.75;;
56401;SDS011;42299;35.160;26.100;2023-04-07T02:39:15;18.95;;;11.48;;
56401;SDS011;42299;35.160;26.100;2023-04-07T02:40:38;16.85;;;9.27;;
56401;SDS011;42299;35.160;26.100;2023-04-07T02:41:59;19.30;;;12.93;;
56401;SDS011;42299;35.160;26.100;2023-04-07T02:43:23;15.65;;;10.93;;
56401;SDS011;42299;35.160;26.100;2023-04-07T02:44:45;22.13;;;12.45;;
56401;SDS011;42299;35.160;26.100;2023-04-07T02:46:07;11.68;;;9.82;;
56401;SDS011;42299;35.160;26.100;2023-04-07T02:47:32;16.70;;;8.80;;
56401;SDS011;42299;35.160;26.100;2023-04-07T02:48:53;17.63;;;10.30;;
56401;SDS011;42299;35.160;26.100;2023-04-07T02:50:16;13.93;;;7.20;;
56401;SDS011;42299;35.160;26.100;2023-04-07T02:51:37;15.52;;;7.43;;
56401;SDS011;42299;35.160;26.100;2023-04-07T02:52:59;13.60;;;9.23;;
56401;SDS011;42299;35.160;26.100;2023-04-07T02:54:22;12.98;;;7.80;;
56401;SDS011;42299;35.160;26.100;2023-04-07T02:55:45;16.00;;;8.90;;
56401;SDS011;42299;35.160;26.100;2023-04-07T02:57:06;15.00;;;7.78;;
56401;SDS011;42299;35.160;26.100;2023-04-07T02:58:29;12.95;;;7.22;;
56401;SDS011;42299;35.160;26.100;2023-04-07T02:59:52;7.85;;;4.20;;
56401;SDS011;42299;35.160;26.100;2023-04-07T03:01:16;9.60;;;4.45;;
56401;SDS011;42299;35.160;26.100;2023-04-07T03:02:40;10.68;;;3.45;;
56401;SDS011;42299;35.160;26.100;2023-04-07T03:04:02;9.13;;;3.17;;
56401;SDS011;42299;35.160;26.100;2023-04-07T03:05:24;9.95;;;3.03;;
56401;SDS011;42299;35.160;26.100;2023-04-07T03:06:45;8.30;;;2.90;;
56401;SDS011;42299;35.160;26.100;2023-04-07T03:08:09;7.22;;;3.33;;
56401;SDS011;42299;35.160;26.100;2023-04-07T03:09:31;8.10;;;2.67;;
56401;SDS011;42299;35.160;26.100;2023-04-07T03:10:54;7.72;;;3.58;;
56401;SDS011;42299;35.160;26.100;2023-04-07T03:12:20;9.73;;;3.50;;
56401;SDS011;42299;35.160;26.100;2023-04-07T03:13:43;11.25;;;3.72;;
56401;SDS011;42299;35.160;26.100;2023-04-07T03:15:05;9.52;;;3.78;;
56401;SDS011;42299;35.160;26.100;2023-04-07T03:16:30;7.15;;;2.65;;
56401;SDS011;42299;35.160;26.100;2023-04-07T03:18:12;6.57;;;2.42;;
56401;SDS011;42299;35.160;26.100;2023-04-07T03:19:35;10.70;;;3.25;;
56401;SDS011;42299;35.160;26.100;2023-04-07T03:20:58;9.50;;;2.97;;
56401;SDS011;42299;35.160;26.100;2023-04-07T03:22:20;7.80;;;2.60;;
56401;SDS011;42299;35.160;26.100;2023-04-07T03:23:45;8.13;;;3.08;;
56401;SDS011;42299;35.160;26.100;2023-04-07T03:25:07;11.18;;;3.38;;
56401;SDS011;42299;35.160;26.100;2023-04-07T03:26:29;9.80;;;3.70;;
56401;SDS011;42299;35.160;26.100;2023-04-07T03:27:52;9.82;;;3.10;;
56401;SDS011;42299;35.160;26.100;2023-04-07T03:29:15;8.82;;;4.28;;
56401;SDS011;42299;35.160;26.100;2023-04-07T03:30:37;9.70;;;4.35;;
56401;SDS011;42299;35.160;26.100;2023-04-07T03:32:00;7.97;;;3.55;;
56401;SDS011;42299;35.160;26.100;2023-04-07T03:33:23;7.50;;;3.28;;
56401;SDS011;42299;35.160;26.100;2023-04-07T03:34:46;6.85;;;3.15;;
56401;SDS011;42299;35.160;26.100;2023-04-07T03:36:10;10.80;;;3.42;;
56401;SDS011;42299;35.160;26.100;2023-04-07T03:37:34;7.22;;;3.33;;
56401;SDS011;42299;35.160;26.100;2023-04-07T03:38:57;8.10;;;3.65;;
56401;SDS011;42299;35.160;26.100;2023-04-07T03:40:19;11.60;;;3.95;;
56401;SDS011;42299;35.160;26.100;2023-04-07T03:41:41;9.27;;;3.40;;
56401;SDS011;42299;35.160;26.100;2023-04-07T03:43:03;9.43;;;2.97;;
56401;SDS011;42299;35.160;26.100;2023-04-07T03:44:25;7.43;;;2.33;;
56401;SDS011;42299;35.160;26.100;2023-04-07T03:45:47;9.52;;;3.10;;
56401;SDS011;42299;35.160;26.100;2023-04-07T03:47:11;10.65;;;3.40;;
56401;SDS011;42299;35.160;26.100;2023-04-07T03:48:35;9.23;;;3.03;;
56401;SDS011;42299;35.160;26.100;2023-04-07T03:50:02;7.35;;;3.28;;
56401;SDS011;42299;35.160;26.100;2023-04-07T03:51:32;8.35;;;3.35;;
56401;SDS011;42299;35.160;26.100;2023-04-07T03:52:55;16.08;;;5.10;;
56401;SDS011;42299;35.160;26.100;2023-04-07T03:54:20;11.30;;;4.22;;
56401;SDS011;42299;35.160;26.100;2023-04-07T03:55:42;16.23;;;7.50;;
56401;SDS011;42299;35.160;26.100;2023-04-07T03:57:13;8.48;;;4.38;;
56401;SDS011;42299;35.160;26.100;2023-04-07T03:58:39;11.43;;;3.58;;
56401;SDS011;42299;35.160;26.100;2023-04-07T04:00:07;11.65;;;4.88;;
56401;SDS011;42299;35.160;26.100;2023-04-07T04:01:54;15.80;;;12.80;;
56401;SDS011;42299;35.160;26.100;2023-04-07T04:03:16;23.30;;;18.42;;
56401;SDS011;42299;35.160;26.100;2023-04-07T04:04:48;20.92;;;16.60;;
56401;SDS011;42299;35.160;26.100;2023-04-07T04:06:12;14.70;;;11.13;;
56401;SDS011;42299;35.160;26.100;2023-04-07T04:07:33;20.63;;;17.75;;
56401;SDS011;42299;35.160;26.100;2023-04-07T04:08:58;19.90;;;16.15;;
56401;SDS011;42299;35.160;26.100;2023-04-07T04:10:20;24.58;;;17.45;;
56401;SDS011;42299;35.160;26.100;2023-04-07T04:11:45;14.57;;;11.63;;
56401;SDS011;42299;35.160;26.100;2023-04-07T04:13:08;24.50;;;20.63;;
56401;SDS011;42299;35.160;26.100;2023-04-07T04:14:31;16.20;;;13.05;;
56401;SDS011;42299;35.160;26.100;2023-04-07T04:15:55;16.27;;;13.50;;
56401;SDS011;42299;35.160;26.100;2023-04-07T04:17:17;15.10;;;10.77;;
56401;SDS011;42299;35.160;26.100;2023-04-07T04:18:40;19.25;;;16.38;;
56401;SDS011;42299;35.160;26.100;2023-04-07T04:20:07;18.20;;;11.82;;
56401;SDS011;42299;35.160;26.100;2023-04-07T04:21:40;12.93;;;6.43;;
56401;SDS011;42299;35.160;26.100;2023-04-07T04:23:03;8.07;;;4.90;;
56401;SDS011;42299;35.160;26.100;2023-04-07T04:24:26;8.80;;;4.22;;
56401;SDS011;42299;35.160;26.100;2023-04-07T04:25:53;9.50;;;3.80;;
56401;SDS011;42299;35.160;26.100;2023-04-07T04:27:14;10.57;;;3.50;;
56401;SDS011;42299;35.160;26.100;2023-04-07T04:28:39;12.00;;;4.68;;
56401;SDS011;42299;35.160;26.100;2023-04-07T04:30:02;14.90;;;8.70;;
56401;SDS011;42299;35.160;26.100;2023-04-07T04:31:42;10.98;;;4.85;;
56401;SDS011;42299;35.160;26.100;2023-04-07T04:33:05;8.55;;;4.55;;
56401;SDS011;42299;35.160;26.100;2023-04-07T04:34:47;8.93;;;4.72;;
56401;SDS011;42299;35.160;26.100;2023-04-07T04:36:11;9.30;;;5.90;;
56401;SDS011;42299;35.160;26.100;2023-04-07T04:37:34;12.20;;;6.38;;
56401;SDS011;42299;35.160;26.100;2023-04-07T04:38:58;11.35;;;7.97;;
56401;SDS011;42299;35.160;26.100;2023-04-07T04:40:24;11.63;;;5.50;;
56401;SDS011;42299;35.160;26.100;2023-04-07T04:41:46;9.82;;;4.97;;
56401;SDS011;42299;35.160;26.100;2023-04-07T04:43:10;10.13;;;4.55;;
56401;SDS011;42299;35.160;26.100;2023-04-07T04:44:33;9.50;;;4.05;;
56401;SDS011;42299;35.160;26.100;2023-04-07T04:45:58;9.63;;;4.45;;
56401;SDS011;42299;35.160;26.100;2023-04-07T04:47:21;12.63;;;5.60;;
56401;SDS011;42299;35.160;26.100;2023-04-07T04:48:44;10.02;;;4.63;;
56401;SDS011;42299;35.160;26.100;2023-04-07T04:50:07;10.95;;;4.68;;
56401;SDS011;42299;35.160;26.100;2023-04-07T04:51:33;12.18;;;4.38;;
56401;SDS011;42299;35.160;26.100;2023-04-07T04:53:03;7.50;;;3.97;;
56401;SDS011;42299;35.160;26.100;2023-04-07T04:54:25;9.90;;;3.95;;
56401;SDS011;42299;35.160;26.100;2023-04-07T04:55:49;10.63;;;3.83;;
56401;SDS011;42299;35.160;26.100;2023-04-07T04:57:16;10.13;;;3.70;;
56401;SDS011;42299;35.160;26.100;2023-04-07T04:58:38;11.25;;;3.40;;
56401;SDS011;42299;35.160;26.100;2023-04-07T05:00:08;7.85;;;3.10;;
56401;SDS011;42299;35.160;26.100;2023-04-07T05:01:34;6.88;;;3.33;;
56401;SDS011;42299;35.160;26.100;2023-04-07T05:03:00;7.80;;;2.88;;
56401;SDS011;42299;35.160;26.100;2023-04-07T05:04:26;8.52;;;2.72;;
56401;SDS011;42299;35.160;26.100;2023-04-07T05:05:56;6.68;;;3.00;;
56401;SDS011;42299;35.160;26.100;2023-04-07T05:07:19;7.03;;;4.07;;
56401;SDS011;42299;35.160;26.100;2023-04-07T05:08:41;10.38;;;7.38;;
56401;SDS011;42299;35.160;26.100;2023-04-07T05:10:04;11.30;;;7.22;;
56401;SDS011;42299;35.160;26.100;2023-04-07T05:11:30;10.48;;;4.78;;
56401;SDS011;42299;35.160;26.100;2023-04-07T05:12:53;10.63;;;5.20;;
56401;SDS011;42299;35.160;26.100;2023-04-07T05:14:15;9.40;;;4.85;;
56401;SDS011;42299;35.160;26.100;2023-04-07T05:15:47;12.00;;;5.18;;
56401;SDS011;42299;35.160;26.100;2023-04-07T05:17:10;8.52;;;4.22;;
56401;SDS011;42299;35.160;26.100;2023-04-07T05:18:32;9.75;;;4.90;;
56401;SDS011;42299;35.160;26.100;2023-04-07T05:19:56;8.77;;;4.05;;
56401;SDS011;42299;35.160;26.100;2023-04-07T05:21:27;9.75;;;3.67;;
56401;SDS011;42299;35.160;26.100;2023-04-07T05:22:55;8.68;;;4.97;;
56401;SDS011;42299;35.160;26.100;2023-04-07T05:24:22;10.00;;;4.70;;
56401;SDS011;42299;35.160;26.100;2023-04-07T05:25:48;11.70;;;4.50;;
56401;SDS011;42299;35.160;26.100;2023-04-07T05:27:12;12.75;;;7.35;;
56401;SDS011;42299;35.160;26.100;2023-04-07T05:28:36;11.93;;;5.05;;
56401;SDS011;42299;35.160;26.100;2023-04-07T05:30:04;13.70;;;5.07;;
56401;SDS011;42299;35.160;26.100;2023-04-07T05:31:28;10.82;;;3.88;;
56401;SDS011;42299;35.160;26.100;2023-04-07T05:32:53;9.57;;;3.40;;
56401;SDS011;42299;35.160;26.100;2023-04-07T05:34:36;9.95;;;3.85;;
56401;SDS011;42299;35.160;26.100;2023-04-07T05:35:59;7.45;;;2.80;;
56401;SDS011;42299;35.160;26.100;2023-04-07T05:37:21;8.45;;;3.00;;
56401;SDS011;42299;35.160;26.100;2023-04-07T05:38:45;8.02;;;3.63;;
56401;SDS011;42299;35.160;26.100;2023-04-07T05:40:12;8.77;;;3.28;;
56401;SDS011;42299;35.160;26.100;2023-04-07T05:41:35;8.23;;;2.97;;
56401;SDS011;42299;35.160;26.100;2023-04-07T05:42:57;12.43;;;2.90;;
56401;SDS011;42299;35.160;26.100;2023-04-07T05:44:22;7.35;;;2.60;;
56401;SDS011;42299;35.160;26.100;2023-04-07T05:45:45;7.32;;;3.10;;
56401;SDS011;42299;35.160;26.100;2023-04-07T05:47:08;7.97;;;3.42;;
56401;SDS011;42299;35.160;26.100;2023-04-07T05:48:31;6.80;;;2.97;;
56401;SDS011;42299;35.160;26.100;2023-04-07T05:49:53;9.77;;;3.72;;
56401;SDS011;42299;35.160;26.100;2023-04-07T05:51:17;11.70;;;3.92;;
56401;SDS011;42299;35.160;26.100;2023-04-07T05:52:39;9.32;;;3.40;;
56401;SDS011;42299;35.160;26.100;2023-04-07T05:54:14;10.57;;;3.17;;
56401;SDS011;42299;35.160;26.100;2023-04-07T05:55:36;10.13;;;3.33;;
56401;SDS011;42299;35.160;26.100;2023-04-07T05:57:01;12.93;;;3.58;;
56401;SDS011;42299;35.160;26.100;2023-04-07T05:58:26;11.05;;;3.70;;
56401;SDS011;42299;35.160;26.100;2023-04-07T05:59:50;9.75;;;3.50;;
56401;SDS011;42299;35.160;26.100;2023-04-07T06:01:12;10.55;;;3.83;;
56401;SDS011;42299;35.160;26.100;2023-04-07T06:02:33;12.05;;;3.55;;
56401;SDS011;42299;35.160;26.100;2023-04-07T06:03:56;10.25;;;3.80;;
56401;SDS011;42299;35.160;26.100;2023-04-07T06:05:20;9.02;;;2.90;;
56401;SDS011;42299;35.160;26.100;2023-04-07T06:06:46;10.27;;;3.05;;
56401;SDS011;42299;35.160;26.100;2023-04-07T06:08:07;11.95;;;3.53;;
56401;SDS011;42299;35.160;26.100;2023-04-07T06:09:32;13.80;;;3.28;;
56401;SDS011;42299;35.160;26.100;2023-04-07T06:10:54;11.73;;;3.03;;
56401;SDS011;42299;35.160;26.100;2023-04-07T06:12:17;8.82;;;2.83;;
56401;SDS011;42299;35.160;26.100;2023-04-07T06:13:40;7.57;;;3.13;;
56401;SDS011;42299;35.160;26.100;2023-04-07T06:15:02;8.32;;;2.90;;
56401;SDS011;42299;35.160;26.100;2023-04-07T06:16:25;9.40;;;3.15;;
56401;SDS011;42299;35.160;26.100;2023-04-07T06:17:48;10.65;;;2.50;;
56401;SDS011;42299;35.160;26.100;2023-04-07T06:19:11;8.32;;;2.50;;
56401;SDS011;42299;35.160;26.100;2023-04-07T06:20:33;7.57;;;2.00;;
56401;SDS011;42299;35.160;26.100;2023-04-07T06:21:55;10.07;;;2.58;;
56401;SDS011;42299;35.160;26.100;2023-04-07T06:23:18;10.07;;;3.35;;
56401;SDS011;42299;35.160;26.100;2023-04-07T06:24:42;9.90;;;2.92;;
56401;SDS011;42299;35.160;26.100;2023-04-07T06:26:04;8.68;;;2.92;;
56401;SDS011;42299;35.160;26.100;2023-04-07T06:27:25;7.20;;;2.92;;
56401;SDS011;42299;35.160;26.100;2023-04-07T06:28:49;9.40;;;2.97;;
56401;SDS011;42299;35.160;26.100;2023-04-07T06:30:12;6.25;;;3.38;;
56401;SDS011;42299;35.160;26.100;2023-04-07T06:31:35;8.77;;;2.80;;
56401;SDS011;42299;35.160;26.100;2023-04-07T06:32:58;7.60;;;2.85;;
56401;SDS011;42299;35.160;26.100;2023-04-07T06:34:20;9.70;;;2.60;;
56401;SDS011;42299;35.160;26.100;2023-04-07T06:35:43;11.02;;;3.15;;
56401;SDS011;42299;35.160;26.100;2023-04-07T06:37:04;9.90;;;2.47;;
56401;SDS011;42299;35.160;26.100;2023-04-07T06:38:27;8.30;;;2.55;;
56401;SDS011;42299;35.160;26.100;2023-04-07T06:39:52;9.82;;;1.92;;
56401;SDS011;42299;35.160;26.100;2023-04-07T06:41:14;6.03;;;1.98;;
56401;SDS011;42299;35.160;26.100;2023-04-07T06:42:37;6.82;;;1.98;;
56401;SDS011;42299;35.160;26.100;2023-04-07T06:44:20;6.25;;;2.20;;
56401;SDS011;42299;35.160;26.100;2023-04-07T06:45:43;8.70;;;1.77;;
56401;SDS011;42299;35.160;26.100;2023-04-07T06:47:05;6.10;;;1.92;;
56401;SDS011;42299;35.160;26.100;2023-04-07T06:48:28;7.15;;;1.73;;
56401;SDS011;42299;35.160;26.100;2023-04-07T06:49:50;9.98;;;2.42;;
56401;SDS011;42299;35.160;26.100;2023-04-07T06:51:13;6.43;;;1.83;;
56401;SDS011;42299;35.160;26.100;2023-04-07T06:52:35;8.10;;;2.05;;
56401;SDS011;42299;35.160;26.100;2023-04-07T06:53:57;7.85;;;1.83;;
56401;SDS011;42299;35.160;26.100;2023-04-07T06:55:21;5.40;;;2.00;;
56401;SDS011;42299;35.160;26.100;2023-04-07T06:56:43;8.25;;;2.10;;
56401;SDS011;42299;35.160;26.100;2023-04-07T06:58:06;5.97;;;1.88;;
56401;SDS011;42299;35.160;26.100;2023-04-07T06:59:28;6.05;;;1.80;;
56401;SDS011;42299;35.160;26.100;2023-04-07T07:00:49;5.40;;;1.65;;
56401;SDS011;42299;35.160;26.100;2023-04-07T07:02:12;6.78;;;2.00;;
56401;SDS011;42299;35.160;26.100;2023-04-07T07:03:34;8.88;;;2.33;;
56401;SDS011;42299;35.160;26.100;2023-04-07T07:04:57;6.65;;;1.70;;
56401;SDS011;42299;35.160;26.100;2023-04-07T07:06:19;6.63;;;1.90;;
56401;SDS011;42299;35.160;26.100;2023-04-07T07:07:42;6.32;;;2.40;;
56401;SDS011;42299;35.160;26.100;2023-04-07T07:09:03;14.70;;;2.97;;
56401;SDS011;42299;35.160;26.100;2023-04-07T07:10:27;5.68;;;2.00;;
56401;SDS011;42299;35.160;26.100;2023-04-07T07:11:50;8.68;;;1.90;;
56401;SDS011;42299;35.160;26.100;2023-04-07T07:13:13;8.20;;;2.47;;
56401;SDS011;42299;35.160;26.100;2023-04-07T07:14:35;9.35;;;2.45;;
56401;SDS011;42299;35.160;26.100;2023-04-07T07:15:58;6.32;;;2.33;;
56401;SDS011;42299;35.160;26.100;2023-04-07T07:17:20;6.70;;;2.15;;
56401;SDS011;42299;35.160;26.100;2023-04-07T07:18:43;5.97;;;1.95;;
56401;SDS011;42299;35.160;26.100;2023-04-07T07:20:06;6.80;;;2.10;;
56401;SDS011;42299;35.160;26.100;2023-04-07T07:21:29;6.03;;;2.28;;
56401;SDS011;42299;35.160;26.100;2023-04-07T07:22:52;6.88;;;1.73;;
56401;SDS011;42299;35.160;26.100;2023-04-07T07:24:14;5.97;;;1.58;;
56401;SDS011;42299;35.160;26.100;2023-04-07T07:25:39;5.47;;;2.03;;
56401;SDS011;42299;35.160;26.100;2023-04-07T07:27:01;5.40;;;2.05;;
56401;SDS011;42299;35.160;26.100;2023-04-07T07:28:24;8.30;;;1.95;;
56401;SDS011;42299;35.160;26.100;2023-04-07T07:29:48;8.68;;;2.28;;
56401;SDS011;42299;35.160;26.100;2023-04-07T07:31:10;5.90;;;2.17;;
56401;SDS011;42299;35.160;26.100;2023-04-07T07:32:35;5.82;;;2.35;;
56401;SDS011;42299;35.160;26.100;2023-04-07T07:33:57;8.85;;;2.10;;
56401;SDS011;42299;35.160;26.100;2023-04-07T07:35:18;6.10;;;1.77;;
56401;SDS011;42299;35.160;26.100;2023-04-07T07:36:41;5.38;;;1.67;;
56401;SDS011;42299;35.160;26.100;2023-04-07T07:38:03;5.05;;;1.40;;
56401;SDS011;42299;35.160;26.100;2023-04-07T07:39:25;4.88;;;1.40;;
56401;SDS011;42299;35.160;26.100;2023-04-07T07:40:49;4.55;;;1.10;;
56401;SDS011;42299;35.160;26.100;2023-04-07T07:42:11;6.03;;;1.20;;
56401;SDS011;42299;35.160;26.100;2023-04-07T07:43:34;4.40;;;1.30;;
56401;SDS011;42299;35.160;26.100;2023-04-07T07:44:57;5.40;;;1.48;;
56401;SDS011;42299;35.160;26.100;2023-04-07T07:46:19;2.97;;;1.13;;
56401;SDS011;42299;35.160;26.100;2023-04-07T07:47:43;5.80;;;1.48;;
56401;SDS011;42299;35.160;26.100;2023-04-07T07:49:06;5.18;;;1.00;;
56401;SDS011;42299;35.160;26.100;2023-04-07T07:50:29;5.95;;;1.10;;
56401;SDS011;42299;35.160;26.100;2023-04-07T07:51:51;4.90;;;1.30;;
56401;SDS011;42299;35.160;26.100;2023-04-07T07:53:14;5.50;;;1.20;;
56401;SDS011;42299;35.160;26.100;2023-04-07T07:54:36;8.73;;;1.70;;
56401;SDS011;42299;35.160;26.100;2023-04-07T07:56:01;8.10;;;1.70;;
56401;SDS011;42299;35.160;26.100;2023-04-07T07:57:23;5.93;;;1.77;;
56401;SDS011;42299;35.160;26.100;2023-04-07T07:58:46;6.45;;;1.63;;
56401;SDS011;42299;35.160;26.100;2023-04-07T08:00:09;8.27;;;1.88;;
56401;SDS011;42299;35.160;26.100;2023-04-07T08:01:35;10.73;;;2.55;;
56401;SDS011;42299;35.160;26.100;2023-04-07T08:02:57;6.78;;;2.22;;
56401;SDS011;42299;35.160;26.100;2023-04-07T08:04:20;7.07;;;2.55;;
56401;SDS011;42299;35.160;26.100;2023-04-07T08:05:43;6.35;;;1.60;;
56401;SDS011;42299;35.160;26.100;2023-04-07T08:07:06;7.28;;;1.83;;
56401;SDS011;42299;35.160;26.100;2023-04-07T08:08:28;6.30;;;1.70;;
56401;SDS011;42299;35.160;26.100;2023-04-07T08:09:50;9.02;;;3.00;;
56401;SDS011;42299;35.160;26.100;2023-04-07T08:11:14;17.67;;;9.52;;
56401;SDS011;42299;35.160;26.100;2023-04-07T08:12:37;20.77;;;9.00;;
56401;SDS011;42299;35.160;26.100;2023-04-07T08:13:59;20.80;;;11.35;;
56401;SDS011;42299;35.160;26.100;2023-04-07T08:15:21;17.13;;;7.45;;
56401;SDS011;42299;35.160;26.100;2023-04-07T08:16:44;11.30;;;5.93;;
56401;SDS011;42299;35.160;26.100;2023-04-07T08:18:06;11.52;;;4.30;;